createdAt,value
2017-05-27T00:00:30.505Z,1015.59
2017-05-27T00:01:31.146Z,1015.59
2017-05-27T00:02:31.789Z,1015.68
2017-05-27T00:03:32.629Z,1015.66
2017-05-27T00:04:33.271Z,1015.62
2017-05-27T00:05:33.915Z,1015.61
2017-05-27T00:06:34.557Z,1015.62
2017-05-27T00:07:35.200Z,1015.56
2017-05-27T00:08:35.834Z,1015.62
2017-05-27T00:09:36.475Z,1015.56
2017-05-27T00:10:37.119Z,1015.61
2017-05-27T00:11:37.760Z,1015.65
2017-05-27T00:12:38.603Z,1015.57
2017-05-27T00:13:39.243Z,1015.60
2017-05-27T00:14:39.880Z,1015.60
2017-05-27T00:15:40.523Z,1015.60
2017-05-27T00:16:41.167Z,1015.57
2017-05-27T00:17:41.809Z,1015.49
2017-05-27T00:18:42.451Z,1015.53
2017-05-27T00:19:43.092Z,1015.59
2017-05-27T00:20:43.934Z,1015.51
2017-05-27T00:21:44.585Z,1015.60
2017-05-27T00:22:45.228Z,1015.52
2017-05-27T00:23:45.869Z,1015.53
2017-05-27T00:24:46.509Z,1015.45
2017-05-27T00:25:47.146Z,1015.50
2017-05-27T00:26:47.786Z,1015.48
2017-05-27T00:27:48.430Z,1015.47
2017-05-27T00:28:49.275Z,1015.42
2017-05-27T00:29:49.918Z,1015.39
2017-05-27T00:30:50.552Z,1015.39
2017-05-27T00:31:51.194Z,1015.35
2017-05-27T00:32:51.837Z,1015.41
2017-05-27T00:33:52.475Z,1015.35
2017-05-27T00:34:53.115Z,1015.37
2017-05-27T00:35:53.756Z,1015.34
2017-05-27T00:36:54.596Z,1015.41
2017-05-27T00:37:55.237Z,1015.34
2017-05-27T00:38:55.877Z,1015.37
2017-05-27T00:39:56.520Z,1015.24
2017-05-27T00:40:57.160Z,1015.33
2017-05-27T00:41:57.801Z,1015.30
2017-05-27T00:42:58.436Z,1015.39
2017-05-27T00:43:59.080Z,1015.34
2017-05-27T00:44:59.870Z,1015.31
2017-05-27T00:46:00.513Z,1015.36
2017-05-27T00:47:01.149Z,1015.35
2017-05-27T00:48:01.792Z,1015.40
2017-05-27T00:49:02.433Z,1015.43
2017-05-27T00:50:03.077Z,1015.41
2017-05-27T00:51:03.774Z,1015.43
2017-05-27T00:52:04.414Z,1015.43
2017-05-27T00:53:05.058Z,1015.46
2017-05-27T00:54:05.900Z,1015.39
2017-05-27T00:55:06.542Z,1015.43
2017-05-27T00:56:07.184Z,1015.54
2017-05-27T00:57:07.825Z,1015.36
2017-05-27T00:58:08.470Z,1015.36
2017-05-27T00:59:09.111Z,1015.45
2017-05-27T01:00:09.756Z,1015.31
2017-05-27T01:01:10.455Z,1015.36
2017-05-27T01:02:11.247Z,1015.40
2017-05-27T01:03:11.887Z,1015.30
2017-05-27T01:04:12.530Z,1015.24
2017-05-27T01:05:13.171Z,1015.24
2017-05-27T01:06:13.815Z,1015.24
2017-05-27T01:07:14.457Z,1015.25
2017-05-27T01:08:15.091Z,1015.25
2017-05-27T01:09:15.732Z,1015.23
2017-05-27T01:10:16.573Z,1015.21
2017-05-27T01:11:17.218Z,1015.22
2017-05-27T01:12:17.857Z,1015.27
2017-05-27T01:13:18.500Z,1015.33
2017-05-27T01:14:19.140Z,1015.27
2017-05-27T01:15:19.784Z,1015.35
2017-05-27T01:16:20.426Z,1015.29
2017-05-27T01:17:21.069Z,1015.28
2017-05-27T01:18:21.860Z,1015.32
2017-05-27T01:19:22.502Z,1015.28
2017-05-27T01:20:23.148Z,1015.30
2017-05-27T01:21:23.785Z,1015.28
2017-05-27T01:22:24.424Z,1015.31
2017-05-27T01:23:25.066Z,1015.30
2017-05-27T01:24:25.706Z,1015.28
2017-05-27T01:25:26.347Z,1015.28
2017-05-27T01:26:26.992Z,1015.33
2017-05-27T01:27:27.833Z,1015.25
2017-05-27T01:28:28.476Z,1015.35
2017-05-27T01:29:29.117Z,1015.34
2017-05-27T01:30:29.759Z,1015.28
2017-05-27T01:31:30.403Z,1015.30
2017-05-27T01:32:31.045Z,1015.37
2017-05-27T01:33:31.685Z,1015.40
2017-05-27T01:34:32.321Z,1015.39
2017-05-27T01:35:33.163Z,1015.39
2017-05-27T01:36:33.805Z,1015.51
2017-05-27T01:37:34.445Z,1015.41
2017-05-27T01:38:35.084Z,1015.38
2017-05-27T01:39:35.724Z,1015.39
2017-05-27T01:40:36.367Z,1015.38
2017-05-27T01:41:37.009Z,1015.47
2017-05-27T01:42:37.652Z,1015.39
2017-05-27T01:43:38.593Z,1015.37
2017-05-27T01:44:39.238Z,1015.36
2017-05-27T01:45:39.876Z,1015.35
2017-05-27T01:46:40.528Z,1015.37
2017-05-27T01:47:41.156Z,1015.37
2017-05-27T01:48:41.807Z,1015.36
2017-05-27T01:49:42.437Z,1015.34
2017-05-27T01:50:43.076Z,1015.33
2017-05-27T01:51:43.864Z,1015.39
2017-05-27T01:52:44.499Z,1015.36
2017-05-27T01:53:45.144Z,1015.38
2017-05-27T01:54:45.783Z,1015.34
2017-05-27T01:55:46.426Z,1015.36
2017-05-27T01:56:47.068Z,1015.40
2017-05-27T01:57:47.711Z,1015.53
2017-05-27T01:58:48.356Z,1015.47
2017-05-27T01:59:49.513Z,1015.46
2017-05-27T02:00:50.155Z,1015.45
2017-05-27T02:01:50.796Z,1015.41
2017-05-27T02:02:51.431Z,1015.46
2017-05-27T02:03:52.072Z,1015.41
2017-05-27T02:04:52.711Z,1015.36
2017-05-27T02:05:53.352Z,1015.33
2017-05-27T02:06:53.994Z,1015.36
2017-05-27T02:07:54.634Z,1015.38
2017-05-27T02:08:55.525Z,1015.33
2017-05-27T02:09:56.171Z,1015.37
2017-05-27T02:10:56.811Z,1015.43
2017-05-27T02:11:57.453Z,1015.36
2017-05-27T02:12:58.097Z,1015.45
2017-05-27T02:14:03.892Z,1015.39
2017-05-27T02:15:04.536Z,1015.35
2017-05-27T02:16:05.177Z,1015.32
2017-05-27T02:17:06.021Z,1015.38
2017-05-27T02:18:06.667Z,1015.38
2017-05-27T02:19:07.305Z,1015.26
2017-05-27T02:20:07.949Z,1015.31
2017-05-27T02:21:08.593Z,1015.32
2017-05-27T02:22:09.231Z,1015.30
2017-05-27T02:23:09.873Z,1015.33
2017-05-27T02:24:10.514Z,1015.29
2017-05-27T02:25:11.405Z,1015.36
2017-05-27T02:26:12.050Z,1015.33
2017-05-27T02:27:12.691Z,1015.30
2017-05-27T02:28:13.284Z,1015.31
2017-05-27T02:29:13.921Z,1015.35
2017-05-27T02:30:14.564Z,1015.31
2017-05-27T02:31:15.206Z,1015.29
2017-05-27T02:32:15.847Z,1015.31
2017-05-27T02:33:16.640Z,1015.34
2017-05-27T02:34:17.280Z,1015.29
2017-05-27T02:35:17.918Z,1015.31
2017-05-27T02:36:18.562Z,1015.28
2017-05-27T02:37:19.196Z,1015.25
2017-05-27T02:38:19.837Z,1015.23
2017-05-27T02:39:20.472Z,1015.27
2017-05-27T02:40:21.110Z,1015.25
2017-05-27T02:41:21.950Z,1015.29
2017-05-27T02:42:22.592Z,1015.31
2017-05-27T02:43:23.234Z,1015.28
2017-05-27T02:44:23.877Z,1015.24
2017-05-27T02:45:24.512Z,1015.28
2017-05-27T02:46:25.154Z,1015.30
2017-05-27T02:47:25.794Z,1015.22
2017-05-27T02:48:26.437Z,1015.30
2017-05-27T02:49:27.078Z,1015.14
2017-05-27T02:50:27.924Z,1015.20
2017-05-27T02:51:28.564Z,1015.09
2017-05-27T02:52:29.204Z,1014.99
2017-05-27T02:53:29.847Z,1015.06
2017-05-27T02:54:30.487Z,1015.01
2017-05-27T02:55:31.129Z,1014.97
2017-05-27T02:56:31.767Z,1014.97
2017-05-27T02:57:32.410Z,1014.90
2017-05-27T02:58:33.200Z,1014.93
2017-05-27T02:59:33.837Z,1014.85
2017-05-27T03:00:34.477Z,1014.93
2017-05-27T03:01:35.119Z,1014.90
2017-05-27T03:02:35.760Z,1014.91
2017-05-27T03:03:36.403Z,1014.93
2017-05-27T03:04:37.045Z,1014.85
2017-05-27T03:05:37.682Z,1014.89
2017-05-27T03:06:38.525Z,1014.91
2017-05-27T03:07:39.165Z,1014.91
2017-05-27T03:08:39.809Z,1015.04
2017-05-27T03:09:40.453Z,1014.96
2017-05-27T03:10:41.094Z,1014.97
2017-05-27T03:11:41.735Z,1014.99
2017-05-27T03:12:42.376Z,1015.01
2017-05-27T03:13:43.017Z,1014.96
2017-05-27T03:14:43.858Z,1014.98
2017-05-27T03:15:44.504Z,1014.97
2017-05-27T03:16:45.198Z,1014.99
2017-05-27T03:17:45.834Z,1014.99
2017-05-27T03:18:46.475Z,1014.94
2017-05-27T03:19:47.117Z,1014.99
2017-05-27T03:20:47.759Z,1014.99
2017-05-27T03:21:48.401Z,1014.93
2017-05-27T03:22:49.044Z,1014.94
2017-05-27T03:23:49.835Z,1015.01
2017-05-27T03:24:50.479Z,1014.89
2017-05-27T03:25:51.120Z,1014.97
2017-05-27T03:26:51.762Z,1014.94
2017-05-27T03:27:52.399Z,1014.96
2017-05-27T03:28:53.039Z,1014.92
2017-05-27T03:29:53.683Z,1014.92
2017-05-27T03:30:54.325Z,1014.96
2017-05-27T03:31:55.166Z,1014.94
2017-05-27T03:32:55.809Z,1014.91
2017-05-27T03:33:56.449Z,1014.89
2017-05-27T03:34:57.090Z,1014.86
2017-05-27T03:35:57.728Z,1014.86
2017-05-27T03:36:58.370Z,1014.93
2017-05-27T03:37:59.013Z,1014.86
2017-05-27T03:38:59.654Z,1014.87
2017-05-27T03:40:00.496Z,1014.86
2017-05-27T03:41:01.133Z,1014.86
2017-05-27T03:42:01.774Z,1014.90
2017-05-27T03:43:02.408Z,1014.90
2017-05-27T03:44:03.046Z,1014.88
2017-05-27T03:45:03.687Z,1014.91
2017-05-27T03:46:04.333Z,1014.93
2017-05-27T03:47:04.975Z,1015.00
2017-05-27T03:48:05.815Z,1014.94
2017-05-27T03:49:06.456Z,1014.96
2017-05-27T03:50:07.099Z,1014.93
2017-05-27T03:51:07.737Z,1014.96
2017-05-27T03:52:08.377Z,1014.93
2017-05-27T03:53:09.018Z,1014.96
2017-05-27T03:54:09.662Z,1014.96
2017-05-27T03:55:10.303Z,1014.98
2017-05-27T03:56:11.146Z,1014.84
2017-05-27T03:57:11.785Z,1014.87
2017-05-27T03:58:12.422Z,1014.87
2017-05-27T03:59:13.062Z,1014.84
2017-05-27T04:00:13.704Z,1014.86
2017-05-27T04:01:14.349Z,1014.88
2017-05-27T04:02:14.985Z,1014.83
2017-05-27T04:03:15.620Z,1014.83
2017-05-27T04:04:16.264Z,1014.77
2017-05-27T04:05:17.102Z,1014.72
2017-05-27T04:06:17.745Z,1014.71
2017-05-27T04:07:18.385Z,1014.70
2017-05-27T04:08:19.029Z,1014.72
2017-05-27T04:09:19.667Z,1014.72
2017-05-27T04:10:20.307Z,1014.72
2017-05-27T04:11:20.946Z,1014.76
2017-05-27T04:12:21.586Z,1014.66
2017-05-27T04:13:22.424Z,1014.74
2017-05-27T04:14:23.066Z,1014.69
2017-05-27T04:15:23.711Z,1014.66
2017-05-27T04:16:24.355Z,1014.69
2017-05-27T04:17:24.994Z,1014.58
2017-05-27T04:18:25.636Z,1014.70
2017-05-27T04:19:26.279Z,1014.57
2017-05-27T04:20:26.921Z,1014.65
2017-05-27T04:21:27.759Z,1014.64
2017-05-27T04:22:28.398Z,1014.60
2017-05-27T04:23:29.035Z,1014.60
2017-05-27T04:24:29.677Z,1014.55
2017-05-27T04:25:30.321Z,1014.54
2017-05-27T04:26:30.962Z,1014.69
2017-05-27T04:27:31.603Z,1014.55
2017-05-27T04:28:32.243Z,1014.51
2017-05-27T04:29:33.181Z,1014.55
2017-05-27T04:30:33.821Z,1014.55
2017-05-27T04:31:34.459Z,1014.65
2017-05-27T04:32:35.101Z,1014.59
2017-05-27T04:33:35.742Z,1014.56
2017-05-27T04:34:36.385Z,1014.59
2017-05-27T04:35:37.028Z,1014.61
2017-05-27T04:36:37.667Z,1014.55
2017-05-27T04:37:38.310Z,1014.46
2017-05-27T04:38:39.155Z,1014.57
2017-05-27T04:39:39.795Z,1014.50
2017-05-27T04:40:40.429Z,1014.50
2017-05-27T04:41:41.074Z,1014.53
2017-05-27T04:42:41.717Z,1014.50
2017-05-27T04:43:42.359Z,1014.47
2017-05-27T04:44:42.999Z,1014.47
2017-05-27T04:45:43.640Z,1014.50
2017-05-27T04:46:44.433Z,1014.50
2017-05-27T04:47:45.073Z,1014.43
2017-05-27T04:48:45.715Z,1014.46
2017-05-27T04:49:46.355Z,1014.49
2017-05-27T04:50:46.997Z,1014.49
2017-05-27T04:51:47.638Z,1014.59
2017-05-27T04:52:48.282Z,1014.56
2017-05-27T04:53:48.920Z,1014.59
2017-05-27T04:54:49.762Z,1014.63
2017-05-27T04:55:50.402Z,1014.71
2017-05-27T04:56:51.046Z,1014.62
2017-05-27T04:57:51.688Z,1014.64
2017-05-27T04:58:52.327Z,1014.66
2017-05-27T04:59:52.966Z,1014.63
2017-05-27T05:00:53.554Z,1014.68
2017-05-27T05:01:54.192Z,1014.61
2017-05-27T05:02:55.032Z,1014.66
2017-05-27T05:03:55.670Z,1014.65
2017-05-27T05:04:56.311Z,1014.61
2017-05-27T05:05:56.955Z,1014.64
2017-05-27T05:06:57.594Z,1014.65
2017-05-27T05:07:58.231Z,1014.61
2017-05-27T05:08:58.874Z,1014.67
2017-05-27T05:09:59.509Z,1014.62
2017-05-27T05:11:00.453Z,1014.59
2017-05-27T05:12:01.090Z,1014.68
2017-05-27T05:13:01.730Z,1014.61
2017-05-27T05:14:02.371Z,1014.58
2017-05-27T05:15:03.012Z,1014.61
2017-05-27T05:16:03.653Z,1014.52
2017-05-27T05:17:04.296Z,1014.58
2017-05-27T05:18:04.939Z,1014.66
2017-05-27T05:19:05.580Z,1014.60
2017-05-27T05:20:06.371Z,1014.63
2017-05-27T05:21:07.019Z,1014.63
2017-05-27T05:22:07.662Z,1014.63
2017-05-27T05:23:08.303Z,1014.66
2017-05-27T05:24:08.945Z,1014.58
2017-05-27T05:25:09.586Z,1014.62
2017-05-27T05:26:10.229Z,1014.56
2017-05-27T05:27:10.869Z,1014.62
2017-05-27T05:28:11.761Z,1014.63
2017-05-27T05:29:12.403Z,1014.64
2017-05-27T05:30:13.043Z,1014.57
2017-05-27T05:31:13.685Z,1014.68
2017-05-27T05:32:14.326Z,1014.59
2017-05-27T05:33:14.967Z,1014.54
2017-05-27T05:34:15.609Z,1014.53
2017-05-27T05:35:16.253Z,1014.58
2017-05-27T05:36:17.192Z,1014.56
2017-05-27T05:37:17.834Z,1014.58
2017-05-27T05:38:18.469Z,1014.53
2017-05-27T05:39:19.106Z,1014.61
2017-05-27T05:40:19.749Z,1014.61
2017-05-27T05:41:20.391Z,1014.58
2017-05-27T05:42:21.032Z,1014.60
2017-05-27T05:43:21.672Z,1014.58
2017-05-27T05:44:22.614Z,1014.54
2017-05-27T05:45:23.254Z,1014.49
2017-05-27T05:46:23.899Z,1014.49
2017-05-27T05:47:24.543Z,1014.49
2017-05-27T05:48:25.178Z,1014.49
2017-05-27T05:49:25.819Z,1014.47
2017-05-27T05:50:26.462Z,1014.45
2017-05-27T05:51:27.100Z,1014.42
2017-05-27T05:52:27.739Z,1014.51
2017-05-27T05:53:28.678Z,1014.48
2017-05-27T05:54:29.317Z,1014.49
2017-05-27T05:55:29.960Z,1014.47
2017-05-27T05:56:30.599Z,1014.51
2017-05-27T05:57:31.241Z,1014.55
2017-05-27T05:58:31.877Z,1014.61
2017-05-27T05:59:32.522Z,1014.56
2017-05-27T06:00:33.164Z,1014.55
2017-05-27T06:01:34.003Z,1014.46
2017-05-27T06:02:34.648Z,1014.44
2017-05-27T06:03:35.289Z,1014.41
2017-05-27T06:04:35.927Z,1014.38
2017-05-27T06:05:36.562Z,1014.41
2017-05-27T06:06:37.206Z,1014.41
2017-05-27T06:07:37.854Z,1014.44
2017-05-27T06:08:38.484Z,1014.43
2017-05-27T06:09:39.322Z,1014.53
2017-05-27T06:10:39.966Z,1014.40
2017-05-27T06:11:40.605Z,1014.53
2017-05-27T06:12:41.244Z,1014.53
2017-05-27T06:13:41.883Z,1014.47
2017-05-27T06:14:42.525Z,1014.47
2017-05-27T06:15:43.166Z,1014.52
2017-05-27T06:16:43.808Z,1014.48
2017-05-27T06:17:44.598Z,1014.59
2017-05-27T06:18:45.241Z,1014.51
2017-05-27T06:19:45.882Z,1014.56
2017-05-27T06:20:46.520Z,1014.54
2017-05-27T06:21:47.164Z,1014.56
2017-05-27T06:22:47.805Z,1014.56
2017-05-27T06:23:48.446Z,1014.46
2017-05-27T06:24:49.088Z,1014.56
2017-05-27T06:25:50.229Z,1014.50
2017-05-27T06:26:50.872Z,1014.42
2017-05-27T06:27:51.508Z,1014.49
2017-05-27T06:28:52.149Z,1014.46
2017-05-27T06:29:52.792Z,1014.47
2017-05-27T06:30:53.432Z,1014.47
2017-05-27T06:31:54.073Z,1014.54
2017-05-27T06:32:54.710Z,1014.56
2017-05-27T06:33:55.351Z,1014.67
2017-05-27T06:34:56.195Z,1014.55
2017-05-27T06:35:56.835Z,1014.59
2017-05-27T06:36:57.477Z,1014.61
2017-05-27T06:37:58.120Z,1014.57
2017-05-27T06:38:58.762Z,1014.62
2017-05-27T06:39:59.403Z,1014.60
2017-05-27T06:41:00.043Z,1014.60
2017-05-27T06:42:00.634Z,1014.63
2017-05-27T06:43:01.579Z,1014.63
2017-05-27T06:44:02.220Z,1014.57
2017-05-27T06:45:02.861Z,1014.64
2017-05-27T06:46:03.502Z,1014.70
2017-05-27T06:47:04.143Z,1014.75
2017-05-27T06:48:04.784Z,1014.74
2017-05-27T06:49:05.421Z,1014.80
2017-05-27T06:50:06.064Z,1014.80
2017-05-27T06:51:06.857Z,1014.82
2017-05-27T06:52:07.499Z,1014.82
2017-05-27T06:53:08.143Z,1014.93
2017-05-27T06:54:08.787Z,1014.94
2017-05-27T06:55:09.429Z,1014.92
2017-05-27T06:56:10.071Z,1014.98
2017-05-27T06:57:10.713Z,1014.99
2017-05-27T06:58:11.346Z,1014.94
2017-05-27T06:59:12.187Z,1015.04
2017-05-27T07:00:12.829Z,1014.99
2017-05-27T07:01:13.471Z,1014.97
2017-05-27T07:02:14.106Z,1014.93
2017-05-27T07:03:14.747Z,1014.93
2017-05-27T07:04:15.389Z,1014.96
2017-05-27T07:05:16.025Z,1014.98
2017-05-27T07:06:16.670Z,1014.94
2017-05-27T07:07:17.311Z,1014.99
2017-05-27T07:08:18.103Z,1014.97
2017-05-27T07:09:18.745Z,1014.93
2017-05-27T07:10:19.385Z,1014.99
2017-05-27T07:11:20.026Z,1015.04
2017-05-27T07:12:20.662Z,1014.99
2017-05-27T07:13:21.305Z,1015.03
2017-05-27T07:14:21.948Z,1015.06
2017-05-27T07:15:22.589Z,1015.00
2017-05-27T07:16:23.729Z,1015.03
2017-05-27T07:17:24.372Z,1015.05
2017-05-27T07:18:25.014Z,1015.13
2017-05-27T07:19:25.657Z,1015.08
2017-05-27T07:20:26.299Z,1015.10
2017-05-27T07:21:26.941Z,1015.06
2017-05-27T07:22:27.583Z,1015.13
2017-05-27T07:23:28.224Z,1015.13
2017-05-27T07:24:29.062Z,1015.23
2017-05-27T07:25:29.705Z,1015.16
2017-05-27T07:26:30.345Z,1015.19
2017-05-27T07:27:30.986Z,1015.11
2017-05-27T07:28:31.629Z,1015.12
2017-05-27T07:29:32.273Z,1015.10
2017-05-27T07:30:32.921Z,1015.09
2017-05-27T07:31:33.561Z,1015.18
2017-05-27T07:32:34.401Z,1015.13
2017-05-27T07:33:35.039Z,1015.16
2017-05-27T07:34:35.682Z,1015.23
2017-05-27T07:35:36.326Z,1015.23
2017-05-27T07:36:36.968Z,1015.21
2017-05-27T07:37:37.602Z,1015.25
2017-05-27T07:38:38.244Z,1015.28
2017-05-27T07:39:38.886Z,1015.25
2017-05-27T07:40:39.724Z,1015.31
2017-05-27T07:41:40.365Z,1015.24
2017-05-27T07:42:41.006Z,1015.33
2017-05-27T07:43:41.646Z,1015.23
2017-05-27T07:44:42.288Z,1015.19
2017-05-27T07:45:42.930Z,1015.18
2017-05-27T07:46:43.571Z,1015.23
2017-05-27T07:47:44.211Z,1015.22
2017-05-27T07:48:44.849Z,1015.22
2017-05-27T07:49:45.689Z,1015.25
2017-05-27T07:50:46.282Z,1015.23
2017-05-27T07:51:46.917Z,1015.28
2017-05-27T07:52:47.557Z,1015.20
2017-05-27T07:53:48.203Z,1015.22
2017-05-27T07:54:48.844Z,1015.24
2017-05-27T07:55:49.488Z,1015.31
2017-05-27T07:56:50.129Z,1015.25
2017-05-27T07:57:50.969Z,1015.25
2017-05-27T07:58:51.637Z,1015.31
2017-05-27T07:59:52.254Z,1015.26
2017-05-27T08:00:52.898Z,1015.19
2017-05-27T08:01:53.535Z,1015.25
2017-05-27T08:02:54.169Z,1015.29
2017-05-27T08:03:54.866Z,1015.29
2017-05-27T08:04:55.475Z,1015.27
2017-05-27T08:05:56.266Z,1015.31
2017-05-27T08:06:56.909Z,1015.25
2017-05-27T08:07:57.549Z,1015.29
2017-05-27T08:08:58.190Z,1015.30
2017-05-27T08:09:58.834Z,1015.25
2017-05-27T08:10:59.474Z,1015.35
2017-05-27T08:12:00.112Z,1015.28
2017-05-27T08:13:00.757Z,1015.34
2017-05-27T08:14:01.591Z,1015.36
2017-05-27T08:15:02.234Z,1015.34
2017-05-27T08:16:02.877Z,1015.43
2017-05-27T08:17:03.519Z,1015.40
2017-05-27T08:18:04.160Z,1015.40
2017-05-27T08:19:04.803Z,1015.35
2017-05-27T08:20:05.444Z,1015.52
2017-05-27T08:21:06.087Z,1015.42
2017-05-27T08:22:06.727Z,1015.38
2017-05-27T08:23:07.569Z,1015.44
2017-05-27T08:24:08.211Z,1015.50
2017-05-27T08:25:08.853Z,1015.52
2017-05-27T08:26:09.493Z,1015.48
2017-05-27T08:27:10.139Z,1015.44
2017-05-27T08:28:10.783Z,1015.42
2017-05-27T08:29:11.425Z,1015.41
2017-05-27T08:30:12.064Z,1015.53
2017-05-27T08:31:12.906Z,1015.47
2017-05-27T08:32:13.547Z,1015.51
2017-05-27T08:33:14.193Z,1015.55
2017-05-27T08:34:14.828Z,1015.51
2017-05-27T08:35:15.464Z,1015.51
2017-05-27T08:36:16.102Z,1015.52
2017-05-27T08:37:16.747Z,1015.56
2017-05-27T08:38:17.390Z,1015.60
2017-05-27T08:39:18.184Z,1015.54
2017-05-27T08:40:18.823Z,1015.53
2017-05-27T08:41:19.467Z,1015.45
2017-05-27T08:42:20.109Z,1015.51
2017-05-27T08:43:20.754Z,1015.47
2017-05-27T08:44:21.398Z,1015.44
2017-05-27T08:45:22.038Z,1015.47
2017-05-27T08:46:22.675Z,1015.49
2017-05-27T08:47:23.518Z,1015.50
2017-05-27T08:48:24.154Z,1015.60
2017-05-27T08:49:24.790Z,1015.50
2017-05-27T08:50:25.432Z,1015.58
2017-05-27T08:51:26.075Z,1015.58
2017-05-27T08:52:26.712Z,1015.55
2017-05-27T08:53:27.350Z,1015.59
2017-05-27T08:54:27.990Z,1015.58
2017-05-27T08:55:28.782Z,1015.56
2017-05-27T08:56:29.423Z,1015.62
2017-05-27T08:57:30.068Z,1015.52
2017-05-27T08:58:30.715Z,1015.51
2017-05-27T08:59:31.351Z,1015.57
2017-05-27T09:00:31.988Z,1015.62
2017-05-27T09:01:32.626Z,1015.61
2017-05-27T09:02:33.265Z,1015.70
2017-05-27T09:03:33.904Z,1015.71
2017-05-27T09:04:34.748Z,1015.66
2017-05-27T09:05:35.343Z,1015.64
2017-05-27T09:06:35.979Z,1015.68
2017-05-27T09:07:36.624Z,1015.68
2017-05-27T09:08:37.266Z,1015.67
2017-05-27T09:09:37.905Z,1015.72
2017-05-27T09:10:38.548Z,1015.73
2017-05-27T09:11:39.186Z,1015.76
2017-05-27T09:12:39.980Z,1015.72
2017-05-27T09:13:42.036Z,1015.72
2017-05-27T09:14:42.884Z,1015.65
2017-05-27T09:15:43.521Z,1015.75
2017-05-27T09:16:44.159Z,1015.73
2017-05-27T09:17:44.801Z,1015.73
2017-05-27T09:18:45.445Z,1015.77
2017-05-27T09:19:46.084Z,1015.78
2017-05-27T09:20:46.727Z,1015.74
2017-05-27T09:21:47.369Z,1015.74
2017-05-27T09:22:48.263Z,1015.76
2017-05-27T09:23:48.911Z,1015.74
2017-05-27T09:24:49.555Z,1015.75
2017-05-27T09:25:50.203Z,1015.70
2017-05-27T09:26:50.846Z,1015.78
2017-05-27T09:27:51.493Z,1015.83
2017-05-27T09:28:52.142Z,1015.80
2017-05-27T09:29:52.790Z,1015.81
2017-05-27T09:30:53.637Z,1015.79
2017-05-27T09:31:54.280Z,1015.82
2017-05-27T09:32:54.925Z,1015.76
2017-05-27T09:33:55.571Z,1015.76
2017-05-27T09:34:56.519Z,1015.80
2017-05-27T09:35:57.166Z,1015.76
2017-05-27T09:36:57.816Z,1015.71
2017-05-27T09:37:58.461Z,1015.74
2017-05-27T09:38:59.258Z,1015.77
2017-05-27T09:39:59.908Z,1015.76
2017-05-27T09:41:00.554Z,1015.86
2017-05-27T09:42:01.204Z,1015.85
2017-05-27T09:43:01.853Z,1015.75
2017-05-27T09:44:02.502Z,1015.77
2017-05-27T09:45:03.148Z,1015.75
2017-05-27T09:46:03.798Z,1015.75
2017-05-27T09:47:04.652Z,1015.81
2017-05-27T09:48:05.294Z,1015.86
2017-05-27T09:49:05.940Z,1015.76
2017-05-27T09:50:06.587Z,1015.81
2017-05-27T09:51:07.232Z,1015.76
2017-05-27T09:52:07.880Z,1015.75
2017-05-27T09:53:08.528Z,1015.79
2017-05-27T09:54:09.176Z,1015.77
2017-05-27T09:55:09.823Z,1015.73
2017-05-27T09:56:10.722Z,1015.82
2017-05-27T09:57:11.368Z,1015.75
2017-05-27T09:58:12.015Z,1015.80
2017-05-27T09:59:12.662Z,1015.84
2017-05-27T10:00:13.311Z,1015.74
2017-05-27T10:01:13.958Z,1015.83
2017-05-27T10:02:14.607Z,1015.81
2017-05-27T10:03:15.262Z,1015.80
2017-05-27T10:04:16.208Z,1015.87
2017-05-27T10:05:16.914Z,1015.90
2017-05-27T10:06:17.560Z,1015.89
2017-05-27T10:07:18.209Z,1015.94
2017-05-27T10:08:18.869Z,1015.91
2017-05-27T10:09:19.503Z,1015.90
2017-05-27T10:10:20.146Z,1015.89
2017-05-27T10:11:20.797Z,1015.92
2017-05-27T10:12:21.590Z,1015.89
2017-05-27T10:13:22.237Z,1015.90
2017-05-27T10:14:22.884Z,1015.86
2017-05-27T10:15:23.531Z,1015.72
2017-05-27T10:16:24.178Z,1015.73
2017-05-27T10:17:24.827Z,1015.71
2017-05-27T10:18:25.474Z,1015.68
2017-05-27T10:19:26.072Z,1015.67
2017-05-27T10:20:26.922Z,1015.60
2017-05-27T10:21:27.572Z,1015.63
2017-05-27T10:22:28.220Z,1015.59
2017-05-27T10:23:28.868Z,1015.73
2017-05-27T10:24:29.514Z,1015.68
2017-05-27T10:25:30.165Z,1015.70
2017-05-27T10:26:30.814Z,1015.74
2017-05-27T10:27:31.463Z,1015.72
2017-05-27T10:28:32.107Z,1015.68
2017-05-27T10:29:32.904Z,1015.69
2017-05-27T10:30:33.554Z,1015.82
2017-05-27T10:31:34.197Z,1015.75
2017-05-27T10:32:34.845Z,1015.75
2017-05-27T10:33:35.495Z,1015.71
2017-05-27T10:34:36.144Z,1015.74
2017-05-27T10:35:36.794Z,1015.71
2017-05-27T10:36:37.444Z,1015.72
2017-05-27T10:37:38.289Z,1015.79
2017-05-27T10:38:38.934Z,1015.79
2017-05-27T10:39:39.581Z,1015.82
2017-05-27T10:40:40.227Z,1015.79
2017-05-27T10:41:40.873Z,1015.78
2017-05-27T10:42:41.520Z,1015.79
2017-05-27T10:43:42.163Z,1015.70
2017-05-27T10:44:42.813Z,1015.72
2017-05-27T10:45:43.663Z,1015.71
2017-05-27T10:46:44.312Z,1015.74
2017-05-27T10:47:44.963Z,1015.77
2017-05-27T10:48:45.611Z,1015.79
2017-05-27T10:49:46.267Z,1015.75
2017-05-27T10:50:46.906Z,1015.76
2017-05-27T10:51:47.552Z,1015.77
2017-05-27T10:52:48.200Z,1015.81
2017-05-27T10:53:49.050Z,1015.89
2017-05-27T10:54:49.700Z,1015.84
2017-05-27T10:55:50.349Z,1015.81
2017-05-27T10:56:51.000Z,1015.82
2017-05-27T10:57:51.649Z,1015.89
2017-05-27T10:58:52.301Z,1015.78
2017-05-27T10:59:52.949Z,1015.77
2017-05-27T11:00:53.596Z,1015.71
2017-05-27T11:01:54.391Z,1015.86
2017-05-27T11:02:55.039Z,1015.83
2017-05-27T11:03:55.683Z,1015.81
2017-05-27T11:04:56.328Z,1015.78
2017-05-27T11:05:56.975Z,1015.89
2017-05-27T11:06:57.623Z,1015.77
2017-05-27T11:07:58.270Z,1015.80
2017-05-27T11:08:58.922Z,1015.79
2017-05-27T11:09:59.565Z,1015.82
2017-05-27T11:11:00.511Z,1015.81
2017-05-27T11:12:01.158Z,1015.80
2017-05-27T11:13:01.809Z,1015.83
2017-05-27T11:14:02.453Z,1015.93
2017-05-27T11:15:03.103Z,1015.90
2017-05-27T11:16:03.747Z,1015.84
2017-05-27T11:17:04.395Z,1015.93
2017-05-27T11:18:05.044Z,1015.93
2017-05-27T11:19:05.994Z,1015.83
2017-05-27T11:20:06.644Z,1016.06
2017-05-27T11:21:07.248Z,1015.98
2017-05-27T11:22:07.897Z,1016.00
2017-05-27T11:23:08.547Z,1016.07
2017-05-27T11:24:09.197Z,1016.03
2017-05-27T11:25:09.847Z,1016.07
2017-05-27T11:26:10.497Z,1016.13
2017-05-27T11:27:11.347Z,1016.09
2017-05-27T11:28:11.996Z,1016.08
2017-05-27T11:29:12.643Z,1016.09
2017-05-27T11:30:13.293Z,1016.15
2017-05-27T11:31:13.944Z,1016.13
2017-05-27T11:32:14.592Z,1016.10
2017-05-27T11:33:15.243Z,1016.18
2017-05-27T11:34:15.892Z,1016.28
2017-05-27T11:35:16.793Z,1016.28
2017-05-27T11:36:17.443Z,1016.17
2017-05-27T11:37:18.095Z,1016.26
2017-05-27T11:38:18.748Z,1016.21
2017-05-27T11:39:19.400Z,1016.15
2017-05-27T11:40:20.051Z,1016.22
2017-05-27T11:41:20.702Z,1016.26
2017-05-27T11:42:21.356Z,1016.21
2017-05-27T11:43:21.999Z,1016.24
2017-05-27T11:44:23.795Z,1016.22
2017-05-27T11:45:24.441Z,1016.24
2017-05-27T11:46:25.092Z,1016.36
2017-05-27T11:47:25.741Z,1016.21
2017-05-27T11:48:26.391Z,1016.21
2017-05-27T11:49:27.038Z,1016.03
2017-05-27T11:50:27.689Z,1016.02
2017-05-27T11:51:28.339Z,1016.13
2017-05-27T11:52:29.536Z,1016.16
2017-05-27T11:53:30.186Z,1016.14
2017-05-27T11:54:30.838Z,1016.07
2017-05-27T11:55:31.489Z,1016.09
2017-05-27T11:56:32.141Z,1016.09
2017-05-27T11:57:32.791Z,1016.14
2017-05-27T11:58:33.437Z,1016.14
2017-05-27T11:59:34.085Z,1016.13
2017-05-27T12:00:35.080Z,1016.17
2017-05-27T12:01:35.734Z,1016.19
2017-05-27T12:02:36.381Z,1016.22
2017-05-27T12:03:37.033Z,1016.16
2017-05-27T12:04:37.680Z,1016.09
2017-05-27T12:05:38.330Z,1016.04
2017-05-27T12:06:38.983Z,1016.10
2017-05-27T12:07:39.633Z,1016.06
2017-05-27T12:08:40.486Z,1016.15
2017-05-27T12:09:41.135Z,1016.18
2017-05-27T12:10:41.782Z,1016.11
2017-05-27T12:11:42.434Z,1016.16
2017-05-27T12:12:43.086Z,1016.17
2017-05-27T12:13:43.738Z,1016.14